Time;durP1;ratioP1;P1;durP2;ratioP2;P2;SDS_P1;SDS_P2;PMS_P1;PMS_P2;Temp;Humidity;BMP_temperature;BMP_pressure;BME280_temperature;BME280_humidity;BME280_pressure;Samples;Min_cycle;Max_cycle;Signal;HPM_P1;HPM_P2
2023/08/29 00:01:28;;;;;;;3.92;2.60;;;;;;;;;;5095391;28;20063;-81
2023/08/29 00:03:58;;;;;;;5.25;2.50;;;;;;;;;;5096818;28;20052;-81
2023/08/29 00:06:26;;;;;;;2.75;2.40;;;;;;;;;;5079198;28;20101;-81
2023/08/29 00:08:54;;;;;;;2.47;1.90;;;;;;;;;;5096136;28;20059;-81
2023/08/29 00:11:23;;;;;;;6.22;2.15;;;;;;;;;;5095201;28;20059;-81
2023/08/29 00:13:53;;;;;;;3.75;2.60;;;;;;;;;;5094379;28;20048;-80
2023/08/29 00:16:23;;;;;;;3.35;2.17;;;;;;;;;;5075308;28;20059;-80
2023/08/29 00:18:51;;;;;;;5.05;3.22;;;;;;;;;;5091879;28;20054;-80
2023/08/29 00:21:21;;;;;;;3.92;2.20;;;;;;;;;;5090985;28;20052;-80
2023/08/29 00:23:48;;;;;;;5.90;2.45;;;;;;;;;;5074306;28;20048;-80
2023/08/29 00:26:15;;;;;;;4.05;2.50;;;;;;;;;;5074239;28;20041;-80
2023/08/29 00:28:43;;;;;;;3.97;2.53;;;;;;;;;;5072339;28;20040;-80
2023/08/29 00:31:11;;;;;;;2.30;2.10;;;;;;;;;;5088427;28;20055;-80
2023/08/29 00:33:41;;;;;;;2.42;2.22;;;;;;;;;;5084801;22;20052;-79
2023/08/29 00:36:14;;;;;;;2.97;2.47;;;;;;;;;;5037713;28;20052;-82
2023/08/29 00:38:44;;;;;;;4.00;2.90;;;;;;;;;;5017728;28;20423;-82
2023/08/29 00:41:13;;;;;;;3.17;2.45;;;;;;;;;;5020968;28;20048;-83
2023/08/29 00:43:41;;;;;;;2.97;2.45;;;;;;;;;;5006233;28;20058;-81
2023/08/29 00:46:08;;;;;;;4.35;2.95;;;;;;;;;;5016748;28;20056;-81
2023/08/29 00:48:35;;;;;;;3.65;2.83;;;;;;;;;;5027132;28;20049;-81
2023/08/29 00:51:07;;;;;;;4.68;2.78;;;;;;;;;;5036870;28;20046;-81
2023/08/29 00:53:36;;;;;;;5.85;3.30;;;;;;;;;;5010751;28;20483;-81
2023/08/29 00:56:05;;;;;;;4.05;2.97;;;;;;;;;;5011241;28;20060;-81
2023/08/29 00:58:33;;;;;;;4.30;2.67;;;;;;;;;;5011827;28;20052;-81
2023/08/29 01:01:02;;;;;;;4.28;3.03;;;;;;;;;;5027711;28;20056;-81
2023/08/29 01:03:30;;;;;;;3.38;2.33;;;;;;;;;;5004570;28;20057;-81
2023/08/29 01:05:57;;;;;;;8.43;3.05;;;;;;;;;;5015179;28;20038;-81
2023/08/29 01:08:25;;;;;;;2.90;2.65;;;;;;;;;;5023464;28;20045;-81
2023/08/29 01:11:00;;;;;;;2.90;2.17;;;;;;;;;;5015660;28;20049;-81
2023/08/29 01:13:31;;;;;;;2.95;2.35;;;;;;;;;;5027787;28;20046;-81
2023/08/29 01:16:01;;;;;;;3.30;3.00;;;;;;;;;;5003979;28;20057;-81
2023/08/29 01:18:30;;;;;;;6.15;3.53;;;;;;;;;;5030275;28;20049;-81
2023/08/29 01:21:07;;;;;;;2.78;2.38;;;;;;;;;;5011556;28;20057;-81
2023/08/29 01:23:41;;;;;;;2.70;2.45;;;;;;;;;;5044035;28;20393;-81
2023/08/29 01:26:14;;;;;;;2.88;2.60;;;;;;;;;;5029840;28;20468;-81
2023/08/29 01:28:42;;;;;;;4.90;2.50;;;;;;;;;;5017864;28;20045;-81
2023/08/29 01:31:10;;;;;;;2.30;2.10;;;;;;;;;;5025642;28;20511;-81
2023/08/29 01:33:38;;;;;;;3.65;2.75;;;;;;;;;;5032487;28;20053;-81
2023/08/29 01:36:09;;;;;;;3.63;2.67;;;;;;;;;;5024331;28;20049;-81
2023/08/29 01:38:36;;;;;;;3.95;3.55;;;;;;;;;;5029937;28;20051;-81
2023/08/29 01:41:04;;;;;;;3.75;2.78;;;;;;;;;;5030514;28;20453;-81
2023/08/29 01:43:32;;;;;;;2.10;1.90;;;;;;;;;;5003353;28;20068;-81
2023/08/29 01:46:00;;;;;;;4.30;2.70;;;;;;;;;;5027309;28;20061;-81
2023/08/29 01:48:29;;;;;;;6.40;3.03;;;;;;;;;;5024331;28;20044;-81
2023/08/29 01:50:56;;;;;;;3.97;2.67;;;;;;;;;;5010289;28;20045;-82
2023/08/29 01:53:27;;;;;;;3.75;3.35;;;;;;;;;;5005889;28;20050;-82
2023/08/29 01:56:00;;;;;;;3.92;3.60;;;;;;;;;;5016569;28;20515;-82
2023/08/29 01:58:31;;;;;;;5.55;2.60;;;;;;;;;;5011584;28;20061;-82
2023/08/29 02:01:00;;;;;;;7.05;2.50;;;;;;;;;;5002365;28;20052;-82
2023/08/29 02:03:26;;;;;;;3.10;2.75;;;;;;;;;;5021675;28;20037;-82
2023/08/29 02:05:56;;;;;;;4.20;2.75;;;;;;;;;;5026184;28;20063;-82
2023/08/29 02:08:26;;;;;;;8.15;2.70;;;;;;;;;;5005948;28;20069;-82
2023/08/29 02:10:53;;;;;;;3.65;2.17;;;;;;;;;;5027752;28;20050;-82
2023/08/29 02:13:26;;;;;;;3.03;2.53;;;;;;;;;;5027092;28;20041;-82
2023/08/29 02:15:53;;;;;;;8.73;2.85;;;;;;;;;;5011602;28;20058;-82
2023/08/29 02:18:21;;;;;;;4.32;2.35;;;;;;;;;;5028598;28;20054;-82
2023/08/29 02:20:49;;;;;;;4.82;2.83;;;;;;;;;;5009598;28;20069;-82
2023/08/29 02:23:16;;;;;;;4.40;2.78;;;;;;;;;;5022820;28;20065;-82
2023/08/29 02:25:43;;;;;;;2.72;2.50;;;;;;;;;;5006332;28;20057;-82
2023/08/29 02:28:13;;;;;;;5.53;3.10;;;;;;;;;;5022121;28;20049;-82
2023/08/29 02:30:43;;;;;;;2.97;2.78;;;;;;;;;;5033110;28;20049;-82
2023/08/29 02:33:10;;;;;;;2.60;2.38;;;;;;;;;;5028698;28;20061;-82
2023/08/29 02:35:41;;;;;;;3.20;2.40;;;;;;;;;;5020254;28;20060;-81
2023/08/29 02:38:08;;;;;;;3.55;2.70;;;;;;;;;;5039443;28;20103;-81
2023/08/29 02:40:35;;;;;;;3.33;3.03;;;;;;;;;;5013327;28;20057;-81
2023/08/29 02:43:03;;;;;;;3.38;2.67;;;;;;;;;;5027904;28;20060;-81
2023/08/29 02:45:30;;;;;;;7.55;3.00;;;;;;;;;;5027457;28;20042;-81
2023/08/29 02:47:57;;;;;;;3.55;2.53;;;;;;;;;;5017327;28;20053;-81
2023/08/29 02:50:26;;;;;;;3.20;2.53;;;;;;;;;;5020146;28;20052;-81
2023/08/29 02:52:57;;;;;;;4.03;2.97;;;;;;;;;;5026038;28;20122;-81
2023/08/29 02:55:30;;;;;;;4.28;2.55;;;;;;;;;;5008229;28;20060;-81
2023/08/29 02:57:59;;;;;;;3.60;3.30;;;;;;;;;;5009233;28;20443;-81
2023/08/29 03:00:29;;;;;;;4.00;3.28;;;;;;;;;;5031507;28;20038;-82
2023/08/29 03:02:59;;;;;;;5.10;3.00;;;;;;;;;;5038803;28;20052;-82
2023/08/29 03:05:26;;;;;;;4.40;2.85;;;;;;;;;;5018403;28;20068;-82
2023/08/29 03:07:55;;;;;;;13.93;3.95;;;;;;;;;;5017673;28;20050;-82
2023/08/29 03:10:23;;;;;;;4.07;3.03;;;;;;;;;;5032159;28;20408;-82
2023/08/29 03:12:51;;;;;;;3.88;3.00;;;;;;;;;;5024340;28;20068;-82
2023/08/29 03:15:20;;;;;;;4.38;3.25;;;;;;;;;;5014823;28;20045;-82
2023/08/29 03:17:50;;;;;;;7.65;3.17;;;;;;;;;;5028916;28;20049;-82
2023/08/29 03:20:17;;;;;;;3.22;2.67;;;;;;;;;;5033661;28;20053;-81
2023/08/29 03:22:45;;;;;;;3.42;2.90;;;;;;;;;;5025029;28;20041;-81
2023/08/29 03:25:19;;;;;;;8.33;3.47;;;;;;;;;;5023342;28;20053;-81
2023/08/29 03:27:48;;;;;;;3.72;3.42;;;;;;;;;;5037525;28;20442;-81
2023/08/29 03:30:15;;;;;;;3.40;2.58;;;;;;;;;;5006177;28;20048;-81
2023/08/29 03:32:49;;;;;;;9.18;3.25;;;;;;;;;;5031838;28;20053;-81
2023/08/29 03:35:19;;;;;;;3.10;2.80;;;;;;;;;;5024004;28;20045;-81
2023/08/29 03:37:49;;;;;;;3.97;3.22;;;;;;;;;;5039776;28;20057;-81
2023/08/29 03:40:19;;;;;;;4.57;2.75;;;;;;;;;;5013457;28;20056;-81
2023/08/29 03:42:47;;;;;;;4.13;2.97;;;;;;;;;;5019786;28;20056;-81
2023/08/29 03:45:19;;;;;;;3.50;3.20;;;;;;;;;;5025711;28;20061;-81
2023/08/29 03:47:46;;;;;;;3.53;3.22;;;;;;;;;;5009792;28;20065;-82
2023/08/29 03:50:16;;;;;;;7.30;3.03;;;;;;;;;;5024356;28;20048;-81
2023/08/29 03:52:49;;;;;;;13.13;4.25;;;;;;;;;;5010440;28;20050;-82
2023/08/29 03:55:22;;;;;;;12.63;4.70;;;;;;;;;;5015873;28;20050;-82
2023/08/29 03:57:53;;;;;;;7.43;3.20;;;;;;;;;;5010946;28;20052;-82
2023/08/29 04:00:23;;;;;;;3.63;3.03;;;;;;;;;;5026320;28;20064;-83
2023/08/29 04:02:53;;;;;;;4.55;3.10;;;;;;;;;;5027557;28;20403;-83
2023/08/29 04:05:22;;;;;;;3.47;2.63;;;;;;;;;;5032158;28;20053;-83
2023/08/29 04:07:53;;;;;;;3.85;3.22;;;;;;;;;;5028163;28;20048;-83
2023/08/29 04:10:20;;;;;;;4.30;3.05;;;;;;;;;;5028819;28;20045;-84
2023/08/29 04:12:54;;;;;;;3.70;2.88;;;;;;;;;;5024503;28;20033;-84
2023/08/29 04:15:24;;;;;;;3.90;2.88;;;;;;;;;;5021279;28;20057;-83
2023/08/29 04:17:51;;;;;;;3.35;2.58;;;;;;;;;;5006479;28;20050;-84
2023/08/29 04:20:21;;;;;;;3.25;2.45;;;;;;;;;;5004146;28;20065;-86
2023/08/29 04:22:51;;;;;;;4.10;3.38;;;;;;;;;;5002930;28;20544;-84
2023/08/29 04:25:19;;;;;;;5.43;3.60;;;;;;;;;;4999953;28;20046;-84
2023/08/29 04:27:48;;;;;;;3.33;2.70;;;;;;;;;;5005490;28;20543;-83
2023/08/29 04:30:20;;;;;;;3.15;2.85;;;;;;;;;;5043420;28;20053;-84
2023/08/29 04:32:50;;;;;;;4.28;3.45;;;;;;;;;;5014243;28;20053;-84
2023/08/29 04:35:18;;;;;;;3.63;3.03;;;;;;;;;;5025850;28;20049;-84
2023/08/29 04:37:47;;;;;;;3.58;2.92;;;;;;;;;;5030638;28;20045;-84
2023/08/29 04:40:21;;;;;;;4.47;2.72;;;;;;;;;;5022614;28;20044;-83
2023/08/29 04:42:50;;;;;;;3.13;2.85;;;;;;;;;;5028485;28;20045;-84
2023/08/29 04:45:20;;;;;;;11.40;2.80;;;;;;;;;;5012398;28;20049;-83
2023/08/29 04:47:57;;;;;;;9.30;2.38;;;;;;;;;;5024589;28;20065;-84
2023/08/29 04:50:26;;;;;;;3.15;2.85;;;;;;;;;;5014158;28;20054;-84
2023/08/29 04:52:56;;;;;;;7.75;3.13;;;;;;;;;;5012614;28;20416;-84
2023/08/29 04:55:25;;;;;;;3.40;2.90;;;;;;;;;;5012693;28;20050;-84
2023/08/29 04:57:54;;;;;;;5.25;3.58;;;;;;;;;;5021708;28;20046;-84
2023/08/29 05:00:26;;;;;;;3.03;2.73;;;;;;;;;;5003729;28;20042;-83
2023/08/29 05:02:54;;;;;;;3.38;3.05;;;;;;;;;;5007376;28;20045;-83
2023/08/29 05:05:21;;;;;;;6.80;3.15;;;;;;;;;;5022696;28;20064;-84
2023/08/29 05:07:58;;;;;;;3.03;2.72;;;;;;;;;;5031017;28;20061;-84
2023/08/29 05:10:27;;;;;;;4.65;2.95;;;;;;;;;;5021418;28;20523;-84
2023/08/29 05:12:57;;;;;;;3.50;3.15;;;;;;;;;;4994299;28;20041;-84
2023/08/29 05:15:28;;;;;;;5.20;3.33;;;;;;;;;;5023738;28;20522;-84
2023/08/29 05:17:57;;;;;;;3.45;2.80;;;;;;;;;;5018032;28;20408;-84
2023/08/29 05:20:34;;;;;;;3.40;2.90;;;;;;;;;;4998102;28;20049;-84
2023/08/29 05:23:04;;;;;;;3.95;3.22;;;;;;;;;;5026636;28;20037;-84
2023/08/29 05:25:35;;;;;;;5.38;2.75;;;;;;;;;;5022719;28;20061;-83
2023/08/29 05:28:03;;;;;;;4.28;3.38;;;;;;;;;;5028758;28;20037;-83
2023/08/29 05:30:34;;;;;;;2.80;2.38;;;;;;;;;;5005655;28;20064;-84
2023/08/29 05:33:05;;;;;;;7.45;2.85;;;;;;;;;;5021432;28;20072;-84
2023/08/29 05:35:34;;;;;;;3.45;3.15;;;;;;;;;;5028310;28;20042;-84
2023/08/29 05:38:04;;;;;;;3.22;2.60;;;;;;;;;;5029255;28;20054;-84
2023/08/29 05:40:34;;;;;;;2.75;2.55;;;;;;;;;;5025924;28;20045;-83
2023/08/29 05:43:01;;;;;;;4.15;2.60;;;;;;;;;;5026123;28;20431;-83
2023/08/29 05:45:32;;;;;;;3.58;3.28;;;;;;;;;;5018597;28;20069;-83
2023/08/29 05:48:01;;;;;;;4.13;3.10;;;;;;;;;;5030664;28;20052;-83
2023/08/29 05:50:31;;;;;;;3.83;3.53;;;;;;;;;;5025925;28;20053;-83
2023/08/29 05:53:01;;;;;;;5.93;3.50;;;;;;;;;;5029842;28;20049;-83
2023/08/29 05:55:28;;;;;;;4.88;3.75;;;;;;;;;;5010217;28;20049;-83
2023/08/29 05:57:55;;;;;;;5.80;3.28;;;;;;;;;;5035983;28;20058;-83
2023/08/29 06:00:22;;;;;;;3.42;2.90;;;;;;;;;;5042160;28;20408;-83
2023/08/29 06:02:53;;;;;;;3.28;2.90;;;;;;;;;;5015365;28;20057;-83
2023/08/29 06:05:23;;;;;;;3.85;3.33;;;;;;;;;;5022016;28;20037;-83
2023/08/29 06:07:50;;;;;;;3.30;3.00;;;;;;;;;;5017375;28;20057;-83
2023/08/29 06:10:17;;;;;;;5.35;3.40;;;;;;;;;;5034165;28;20052;-83
2023/08/29 06:12:44;;;;;;;5.55;3.70;;;;;;;;;;5016301;28;20050;-83
2023/08/29 06:15:12;;;;;;;4.07;3.67;;;;;;;;;;5034311;28;20053;-83
2023/08/29 06:17:41;;;;;;;3.63;3.33;;;;;;;;;;5034194;28;20056;-83
2023/08/29 06:20:11;;;;;;;5.55;3.70;;;;;;;;;;5014161;28;20385;-83
2023/08/29 06:22:40;;;;;;;5.15;3.50;;;;;;;;;;5023962;28;20065;-83
2023/08/29 06:25:10;;;;;;;6.50;2.92;;;;;;;;;;5027120;28;20049;-83
2023/08/29 06:27:38;;;;;;;4.40;3.30;;;;;;;;;;5033965;28;20419;-83
2023/08/29 06:30:12;;;;;;;3.47;3.15;;;;;;;;;;5026343;28;20492;-83
2023/08/29 06:32:40;;;;;;;5.90;4.17;;;;;;;;;;5033652;28;20539;-83
2023/08/29 06:53:26;;;;;;;3.63;2.88;;;;;;;;;;5988253;22;20041;-91
2023/08/29 06:55:54;;;;;;;4.07;3.78;;;;;;;;;;5015509;28;20050;-91
2023/08/29 06:58:23;;;;;;;4.03;3.22;;;;;;;;;;5017511;28;20046;-91
2023/08/29 07:00:51;;;;;;;3.55;2.90;;;;;;;;;;5027547;28;20034;-89
2023/08/29 07:03:18;;;;;;;3.78;3.33;;;;;;;;;;5024369;28;20053;-91
2023/08/29 07:05:49;;;;;;;5.03;3.05;;;;;;;;;;5016812;28;20046;-91
2023/08/29 07:08:20;;;;;;;4.32;2.70;;;;;;;;;;5017526;28;20034;-90
2023/08/29 07:10:50;;;;;;;5.20;3.22;;;;;;;;;;5017707;28;20040;-89
2023/08/29 07:13:17;;;;;;;3.30;2.67;;;;;;;;;;5017844;28;20050;-90
2023/08/29 07:15:47;;;;;;;6.32;2.95;;;;;;;;;;5018372;28;20039;-91
2023/08/29 07:18:15;;;;;;;8.57;3.03;;;;;;;;;;5017908;28;20038;-91
2023/08/29 07:20:48;;;;;;;4.72;3.25;;;;;;;;;;5017955;28;20027;-91
2023/08/29 07:23:16;;;;;;;3.85;2.53;;;;;;;;;;5017507;28;20042;-90
2023/08/29 07:25:49;;;;;;;3.53;3.22;;;;;;;;;;5018527;28;20039;-91
2023/08/29 07:28:17;;;;;;;4.55;3.33;;;;;;;;;;5018642;28;20019;-89
2023/08/29 07:30:45;;;;;;;5.45;4.07;;;;;;;;;;5026519;28;20030;-89
2023/08/29 07:33:15;;;;;;;2.60;2.22;;;;;;;;;;5026175;28;20028;-93
2023/08/29 07:35:43;;;;;;;5.72;2.72;;;;;;;;;;5019199;28;20038;-93
2023/08/29 07:38:10;;;;;;;3.30;2.00;;;;;;;;;;5010795;28;20036;-92
2023/08/29 07:40:41;;;;;;;4.55;2.40;;;;;;;;;;5026063;28;20110;-92
2023/08/29 07:43:15;;;;;;;3.93;2.60;;;;;;;;;;5018301;28;20284;-93
2023/08/29 07:45:47;;;;;;;4.07;2.70;;;;;;;;;;5017469;28;20064;-92
2023/08/29 07:48:17;;;;;;;7.00;2.55;;;;;;;;;;5032908;28;20030;-93
2023/08/29 07:50:47;;;;;;;3.38;2.03;;;;;;;;;;5016902;28;20032;-92
2023/08/29 07:53:17;;;;;;;3.97;2.30;;;;;;;;;;5018610;28;20041;-92
2023/08/29 07:55:45;;;;;;;2.38;2.17;;;;;;;;;;5017882;28;20053;-90
2023/08/29 07:58:16;;;;;;;10.40;2.58;;;;;;;;;;5010959;28;20038;-92
2023/08/29 08:00:43;;;;;;;3.00;2.05;;;;;;;;;;5025583;28;20049;-91
2023/08/29 08:03:13;;;;;;;4.68;2.10;;;;;;;;;;5015735;28;20038;-92
2023/08/29 08:05:46;;;;;;;4.68;2.83;;;;;;;;;;5025999;28;20031;-94
2023/08/29 08:08:15;;;;;;;2.58;2.08;;;;;;;;;;5009900;28;20056;-93
2023/08/29 08:10:43;;;;;;;4.13;2.53;;;;;;;;;;5024200;28;20045;-92
2023/08/29 08:13:10;;;;;;;3.50;2.00;;;;;;;;;;5015962;28;20042;-93
2023/08/29 08:15:41;;;;;;;4.00;2.53;;;;;;;;;;5016797;28;20026;-93
2023/08/29 08:18:09;;;;;;;6.97;2.60;;;;;;;;;;5016625;28;20046;-93
2023/08/29 08:20:38;;;;;;;2.88;1.58;;;;;;;;;;5016125;28;20035;-93
2023/08/29 08:23:08;;;;;;;2.47;2.28;;;;;;;;;;5032574;28;20046;-92
2023/08/29 08:25:35;;;;;;;6.25;1.85;;;;;;;;;;5032135;28;20045;-93
2023/08/29 08:28:07;;;;;;;2.50;2.30;;;;;;;;;;5016061;28;20057;-93
2023/08/29 08:30:36;;;;;;;2.80;2.53;;;;;;;;;;5032289;28;20046;-93
2023/08/29 08:33:11;;;;;;;2.72;1.95;;;;;;;;;;5017449;28;20029;-92
2023/08/29 08:35:38;;;;;;;2.90;1.92;;;;;;;;;;5017191;28;20038;-93
2023/08/29 08:38:07;;;;;;;8.25;2.17;;;;;;;;;;5017326;28;20034;-94
2023/08/29 08:40:35;;;;;;;2.72;1.90;;;;;;;;;;5016380;28;20045;-93
2023/08/29 08:43:02;;;;;;;3.67;1.92;;;;;;;;;;5019330;28;20037;-93
2023/08/29 08:45:30;;;;;;;2.63;2.20;;;;;;;;;;5039601;28;20029;-92
2023/08/29 08:47:59;;;;;;;2.97;2.13;;;;;;;;;;5017052;28;20043;-92
2023/08/29 08:50:28;;;;;;;3.55;1.98;;;;;;;;;;5016216;28;20050;-92
2023/08/29 08:52:59;;;;;;;4.80;2.35;;;;;;;;;;5016704;28;20036;-92
2023/08/29 08:55:27;;;;;;;3.92;1.90;;;;;;;;;;5017242;28;20033;-92
2023/08/29 08:57:54;;;;;;;3.72;1.92;;;;;;;;;;5017123;28;20049;-92
2023/08/29 09:00:26;;;;;;;6.80;2.15;;;;;;;;;;5000702;28;20058;-93
2023/08/29 09:02:54;;;;;;;4.82;2.03;;;;;;;;;;5017252;28;20060;-92
2023/08/29 09:05:22;;;;;;;3.13;2.13;;;;;;;;;;5017271;28;20056;-92
2023/08/29 09:07:51;;;;;;;4.22;2.22;;;;;;;;;;5016578;28;20030;-92
2023/08/29 09:10:19;;;;;;;2.55;1.92;;;;;;;;;;5032803;28;20046;-92
2023/08/29 09:12:48;;;;;;;6.45;2.35;;;;;;;;;;5016778;28;20058;-93
2023/08/29 09:15:19;;;;;;;4.63;2.15;;;;;;;;;;5016418;28;20047;-92
2023/08/29 09:17:48;;;;;;;3.58;2.78;;;;;;;;;;5024792;28;20056;-93
2023/08/29 09:20:19;;;;;;;7.43;1.83;;;;;;;;;;5016078;28;20028;-93
2023/08/29 09:22:46;;;;;;;1.83;1.65;;;;;;;;;;5016918;28;20036;-93
2023/08/29 09:25:16;;;;;;;2.95;1.75;;;;;;;;;;5025154;28;20061;-92
2023/08/29 09:27:48;;;;;;;2.47;1.60;;;;;;;;;;5017296;28;20030;-93
2023/08/29 09:30:17;;;;;;;1.50;1.40;;;;;;;;;;5016512;28;20038;-93
2023/08/29 09:32:45;;;;;;;2.78;1.98;;;;;;;;;;5014729;28;20038;-92
2023/08/29 09:35:16;;;;;;;3.25;1.95;;;;;;;;;;5016452;28;20034;-91
2023/08/29 09:37:50;;;;;;;2.58;1.83;;;;;;;;;;5016207;28;20047;-94
2023/08/29 09:40:24;;;;;;;1.92;1.55;;;;;;;;;;5013841;28;20030;-93
2023/08/29 09:42:55;;;;;;;1.88;1.63;;;;;;;;;;5016964;28;20034;-93
2023/08/29 09:45:26;;;;;;;3.00;1.42;;;;;;;;;;5028986;28;20056;-94
2023/08/29 09:48:02;;;;;;;2.00;1.80;;;;;;;;;;5019809;28;20137;-94
2023/08/29 09:50:36;;;;;;;4.60;2.28;;;;;;;;;;5008401;28;20049;-92
2023/08/29 09:53:05;;;;;;;3.28;2.35;;;;;;;;;;5031717;28;20037;-93
2023/08/29 09:55:37;;;;;;;3.65;1.55;;;;;;;;;;5015829;28;20058;-92
2023/08/29 09:58:05;;;;;;;2.38;1.92;;;;;;;;;;5024607;28;20052;-93
2023/08/29 10:00:33;;;;;;;1.58;1.48;;;;;;;;;;5024145;28;20026;-93
2023/08/29 10:03:03;;;;;;;1.98;1.75;;;;;;;;;;5024075;28;20038;-93
2023/08/29 10:05:34;;;;;;;4.20;1.98;;;;;;;;;;5016180;28;20048;-93
2023/08/29 10:08:06;;;;;;;4.40;1.90;;;;;;;;;;5040387;28;20045;-94
2023/08/29 10:10:38;;;;;;;1.70;1.52;;;;;;;;;;5031259;28;20052;-92
2023/08/29 10:13:09;;;;;;;2.78;1.50;;;;;;;;;;5016038;28;20057;-92
2023/08/29 10:15:37;;;;;;;2.28;1.40;;;;;;;;;;5022082;28;20069;-92
2023/08/29 10:18:05;;;;;;;1.33;1.23;;;;;;;;;;5032099;28;20026;-92
2023/08/29 10:20:36;;;;;;;2.20;2.00;;;;;;;;;;5015811;28;20044;-93
2023/08/29 10:23:04;;;;;;;2.25;1.85;;;;;;;;;;5016003;28;20056;-92
2023/08/29 10:25:32;;;;;;;1.88;1.65;;;;;;;;;;5015638;28;20049;-92
2023/08/29 10:28:01;;;;;;;2.10;1.73;;;;;;;;;;5019858;28;20042;-94
2023/08/29 10:30:29;;;;;;;2.58;1.98;;;;;;;;;;5024002;28;20023;-93
2023/08/29 10:33:00;;;;;;;5.13;2.33;;;;;;;;;;5032515;28;20053;-95
2023/08/29 10:35:31;;;;;;;2.17;1.85;;;;;;;;;;5019285;28;20035;-93
2023/08/29 10:38:01;;;;;;;2.50;1.88;;;;;;;;;;5027572;28;20041;-93
2023/08/29 10:40:34;;;;;;;2.90;2.10;;;;;;;;;;5030443;28;20034;-93
2023/08/29 10:43:04;;;;;;;5.22;2.22;;;;;;;;;;5015407;28;20121;-92
2023/08/29 10:45:47;;;;;;;3.08;2.42;;;;;;;;;;5019618;28;20034;-93
2023/08/29 10:48:19;;;;;;;3.95;2.13;;;;;;;;;;5020854;28;20034;-92
2023/08/29 10:50:52;;;;;;;3.70;2.42;;;;;;;;;;5019071;28;20050;-94
2023/08/29 10:53:20;;;;;;;4.65;2.50;;;;;;;;;;5019585;28;20061;-93
2023/08/29 10:55:59;;;;;;;2.50;2.28;;;;;;;;;;5019631;28;20038;-92
2023/08/29 10:58:38;;;;;;;3.17;2.50;;;;;;;;;;5027851;28;20200;-93
2023/08/29 11:01:06;;;;;;;7.95;3.40;;;;;;;;;;5019283;28;20064;-91
2023/08/29 11:03:55;;;;;;;6.00;2.80;;;;;;;;;;5043625;28;20030;-93
2023/08/29 11:06:28;;;;;;;3.70;3.33;;;;;;;;;;5007854;28;21056;-93
2023/08/29 11:09:16;;;;;;;2.95;2.75;;;;;;;;;;5019334;28;20508;-94
2023/08/29 11:11:45;;;;;;;4.57;3.63;;;;;;;;;;5009480;28;20038;-93
2023/08/29 11:14:15;;;;;;;5.65;3.55;;;;;;;;;;5036114;28;20034;-93
2023/08/29 11:17:10;;;;;;;3.50;3.20;;;;;;;;;;5040664;28;20041;-93
2023/08/29 11:19:41;;;;;;;3.47;3.17;;;;;;;;;;5019024;28;20270;-93
2023/08/29 11:22:09;;;;;;;3.35;3.05;;;;;;;;;;5019422;28;20040;-92
2023/08/29 11:24:39;;;;;;;4.43;3.08;;;;;;;;;;5035109;28;20029;-94
2023/08/29 11:27:06;;;;;;;7.25;2.92;;;;;;;;;;5019246;28;20042;-94
2023/08/29 11:29:40;;;;;;;2.90;2.25;;;;;;;;;;5002244;28;20038;-93
2023/08/29 11:32:10;;;;;;;5.32;2.22;;;;;;;;;;5002083;28;20056;-93
2023/08/29 11:34:37;;;;;;;5.10;2.33;;;;;;;;;;5034759;28;20046;-93
2023/08/29 11:37:09;;;;;;;1.55;1.45;;;;;;;;;;5018403;28;20045;-93
2023/08/29 11:39:38;;;;;;;2.25;1.67;;;;;;;;;;5015725;28;20026;-93
2023/08/29 11:42:08;;;;;;;3.35;2.22;;;;;;;;;;5022324;28;20264;-93
2023/08/29 11:44:38;;;;;;;1.80;1.52;;;;;;;;;;5026468;28;20026;-93
2023/08/29 11:47:14;;;;;;;1.63;1.52;;;;;;;;;;5018670;28;20042;-93
2023/08/29 11:49:41;;;;;;;2.83;2.45;;;;;;;;;;5011615;28;20050;-94
2023/08/29 11:52:11;;;;;;;7.13;3.58;;;;;;;;;;5034038;28;20019;-94
2023/08/29 11:54:40;;;;;;;3.30;2.55;;;;;;;;;;5026163;28;20042;-95
2023/08/29 11:57:10;;;;;;;3.78;2.55;;;;;;;;;;5018687;28;20038;-93
2023/08/29 11:59:41;;;;;;;3.33;2.65;;;;;;;;;;5018487;28;20026;-92
2023/08/29 12:02:11;;;;;;;2.58;2.38;;;;;;;;;;5017510;28;20097;-93
2023/08/29 12:04:41;;;;;;;2.85;2.28;;;;;;;;;;5018000;28;20034;-93
2023/08/29 12:07:09;;;;;;;2.33;1.88;;;;;;;;;;5024081;28;20041;-93
2023/08/29 12:09:42;;;;;;;3.33;2.17;;;;;;;;;;4993468;28;20062;-92
2023/08/29 12:12:10;;;;;;;2.67;2.13;;;;;;;;;;5017602;28;20122;-93
2023/08/29 12:14:50;;;;;;;4.13;2.30;;;;;;;;;;5010114;28;20045;-93
2023/08/29 12:17:22;;;;;;;4.07;1.73;;;;;;;;;;5017183;28;20053;-94
2023/08/29 12:19:55;;;;;;;2.92;2.05;;;;;;;;;;5016748;28;20046;-93
2023/08/29 12:22:29;;;;;;;8.55;2.10;;;;;;;;;;5017679;28;20032;-92
2023/08/29 12:24:58;;;;;;;2.53;1.52;;;;;;;;;;5042019;28;20054;-95
2023/08/29 12:27:27;;;;;;;2.08;1.80;;;;;;;;;;5025406;28;20038;-93
2023/08/29 12:29:57;;;;;;;1.75;1.52;;;;;;;;;;5016528;28;20046;-93
2023/08/29 12:32:27;;;;;;;3.20;1.60;;;;;;;;;;5017303;28;20038;-93
2023/08/29 12:34:55;;;;;;;3.70;1.50;;;;;;;;;;5016974;28;20034;-94
2023/08/29 12:37:23;;;;;;;3.63;1.67;;;;;;;;;;5016396;28;20034;-93
2023/08/29 12:39:51;;;;;;;1.58;1.48;;;;;;;;;;5032911;28;20040;-93
2023/08/29 12:42:18;;;;;;;1.67;1.58;;;;;;;;;;5016598;28;20035;-94
2023/08/29 12:44:47;;;;;;;3.47;1.80;;;;;;;;;;5015834;28;20040;-95
2023/08/29 12:47:15;;;;;;;1.42;1.17;;;;;;;;;;5014051;28;20049;-94
2023/08/29 12:49:49;;;;;;;1.60;1.30;;;;;;;;;;5030015;28;20069;-94
2023/08/29 12:52:18;;;;;;;1.27;1.17;;;;;;;;;;5015084;28;20050;-93
2023/08/29 12:54:45;;;;;;;3.60;1.83;;;;;;;;;;5019016;28;20037;-95
2023/08/29 12:57:15;;;;;;;1.40;1.30;;;;;;;;;;5015463;28;20218;-93
2023/08/29 12:59:42;;;;;;;3.72;1.45;;;;;;;;;;5020203;28;20044;-94
2023/08/29 13:02:12;;;;;;;3.00;1.73;;;;;;;;;;5018479;28;20036;-93
2023/08/29 13:04:40;;;;;;;3.38;1.92;;;;;;;;;;5015553;28;20061;-94
2023/08/29 13:07:11;;;;;;;2.00;1.70;;;;;;;;;;5021733;28;20147;-94
2023/08/29 13:09:39;;;;;;;4.68;1.83;;;;;;;;;;5007408;28;20056;-94
2023/08/29 13:12:07;;;;;;;2.30;1.77;;;;;;;;;;5014911;28;20046;-94
2023/08/29 13:14:35;;;;;;;3.80;2.13;;;;;;;;;;5015172;28;20032;-94
2023/08/29 13:17:04;;;;;;;1.58;1.30;;;;;;;;;;5015839;28;20058;-93
2023/08/29 13:19:33;;;;;;;2.15;1.48;;;;;;;;;;5029111;28;20060;-93
2023/08/29 13:22:02;;;;;;;3.08;1.50;;;;;;;;;;5013356;28;20054;-94
2023/08/29 13:24:31;;;;;;;4.10;1.70;;;;;;;;;;5012260;28;20411;-94
2023/08/29 13:27:01;;;;;;;1.30;1.20;;;;;;;;;;5019036;28;20050;-94
2023/08/29 13:29:31;;;;;;;1.80;1.40;;;;;;;;;;5021774;28;20054;-94
2023/08/29 13:31:58;;;;;;;1.58;1.30;;;;;;;;;;5012030;28;20065;-94
2023/08/29 13:34:26;;;;;;;1.77;1.25;;;;;;;;;;5012957;28;20226;-93
2023/08/29 13:36:58;;;;;;;1.90;1.40;;;;;;;;;;5013876;28;20057;-93
2023/08/29 13:39:25;;;;;;;1.48;1.13;;;;;;;;;;5013939;28;20046;-94
2023/08/29 13:41:54;;;;;;;1.48;1.27;;;;;;;;;;5015092;28;20042;-94
2023/08/29 13:44:24;;;;;;;3.53;2.30;;;;;;;;;;4997360;28;20050;-94
2023/08/29 13:46:54;;;;;;;3.25;2.90;;;;;;;;;;5012565;28;20053;-94
2023/08/29 13:49:21;;;;;;;2.30;1.85;;;;;;;;;;5011696;28;20052;-94
2023/08/29 13:51:49;;;;;;;2.63;2.00;;;;;;;;;;5014076;28;20530;-93
2023/08/29 13:54:16;;;;;;;3.00;2.33;;;;;;;;;;5021826;28;20065;-92
2023/08/29 13:56:44;;;;;;;8.10;2.50;;;;;;;;;;5028714;28;20037;-93
2023/08/29 13:59:14;;;;;;;2.42;1.95;;;;;;;;;;5020210;28;20042;-93
2023/08/29 14:01:41;;;;;;;1.85;1.40;;;;;;;;;;5032556;28;20060;-93
2023/08/29 14:04:09;;;;;;;2.38;1.77;;;;;;;;;;5019069;28;20042;-92
2023/08/29 14:06:36;;;;;;;2.25;1.45;;;;;;;;;;5019664;28;20041;-92
2023/08/29 14:09:06;;;;;;;3.35;2.13;;;;;;;;;;5018786;28;20056;-92
2023/08/29 14:11:33;;;;;;;3.50;1.50;;;;;;;;;;5024470;28;20064;-92
2023/08/29 14:14:01;;;;;;;2.85;1.60;;;;;;;;;;5034415;28;20050;-93
2023/08/29 14:16:29;;;;;;;2.85;1.50;;;;;;;;;;5019534;28;20043;-92
2023/08/29 14:18:57;;;;;;;1.75;1.30;;;;;;;;;;5025562;28;20057;-93
2023/08/29 14:21:24;;;;;;;3.17;1.70;;;;;;;;;;5017824;28;20053;-93
2023/08/29 14:23:52;;;;;;;3.00;1.55;;;;;;;;;;5016273;28;20050;-93
2023/08/29 14:26:19;;;;;;;1.20;1.10;;;;;;;;;;5015658;28;20026;-95
2023/08/29 14:28:46;;;;;;;2.85;1.20;;;;;;;;;;5031492;28;20056;-94
2023/08/29 14:31:14;;;;;;;2.92;1.58;;;;;;;;;;5015650;28;20066;-94
2023/08/29 14:33:45;;;;;;;2.90;1.58;;;;;;;;;;5014909;28;20068;-93
2023/08/29 14:36:18;;;;;;;1.15;1.00;;;;;;;;;;5016182;28;20058;-93
2023/08/29 14:38:45;;;;;;;1.30;1.15;;;;;;;;;;5025487;28;20031;-93
2023/08/29 14:41:13;;;;;;;2.63;2.30;;;;;;;;;;5014833;28;20035;-93
2023/08/29 14:43:41;;;;;;;1.80;1.25;;;;;;;;;;5014449;28;20042;-94
2023/08/29 14:46:09;;;;;;;2.58;1.30;;;;;;;;;;5014130;28;20046;-95
2023/08/29 14:48:39;;;;;;;2.30;1.60;;;;;;;;;;5013439;28;20034;-93
2023/08/29 14:51:11;;;;;;;1.88;1.67;;;;;;;;;;4997181;28;20060;-94
2023/08/29 14:53:40;;;;;;;1.45;1.33;;;;;;;;;;5014452;28;20054;-94
2023/08/29 14:56:11;;;;;;;2.42;1.65;;;;;;;;;;5014302;28;20050;-95
2023/08/29 14:58:39;;;;;;;2.13;1.30;;;;;;;;;;5030728;28;20050;-95
2023/08/29 15:01:07;;;;;;;3.17;1.55;;;;;;;;;;5019586;28;20046;-95
2023/08/29 15:03:37;;;;;;;4.78;1.73;;;;;;;;;;5029458;28;20046;-93
2023/08/29 15:06:05;;;;;;;2.22;1.85;;;;;;;;;;5029001;28;20046;-94
2023/08/29 15:08:33;;;;;;;2.28;1.70;;;;;;;;;;5011775;28;20049;-93
2023/08/29 15:11:03;;;;;;;2.22;1.80;;;;;;;;;;5013096;28;20048;-94
2023/08/29 15:13:33;;;;;;;3.63;1.67;;;;;;;;;;5014245;28;20046;-93
2023/08/29 15:16:04;;;;;;;2.60;1.52;;;;;;;;;;5013899;28;20046;-93